Time;durP1;ratioP1;P1;durP2;ratioP2;P2;SDS_P1;SDS_P2;PMS_P1;PMS_P2;Temp;Humidity;BMP_temperature;BMP_pressure;BME280_temperature;BME280_humidity;BME280_pressure;Samples;Min_cycle;Max_cycle;Signal;HPM_P1;HPM_P2
2022/02/10 00:13:42;;;;;;;13.97;8.57;;;;;;;;;;5037913;28;20206;-75
2022/02/10 00:21:47;;;;;;;15.30;7.43;;;;;;;;;;5087556;28;20660;-74
2022/02/10 00:35:32;;;;;;;6.20;4.70;;;;;;;;;;5135964;27;20251;-75
2022/02/10 00:38:00;;;;;;;15.90;5.40;;;;;;;;;;5145139;27;20195;-74
2022/02/10 00:40:29;;;;;;;10.87;4.70;;;;;;;;;;5135820;27;20570;-75
2022/02/10 00:42:59;;;;;;;10.50;4.20;;;;;;;;;;5144655;27;20206;-75
2022/02/10 00:45:29;;;;;;;5.97;3.90;;;;;;;;;;5156413;27;20285;-74
2022/02/10 00:48:00;;;;;;;8.07;4.27;;;;;;;;;;5145615;27;20718;-75
2022/02/10 00:50:30;;;;;;;4.83;3.80;;;;;;;;;;5135500;27;20759;-75
2022/02/10 00:53:02;;;;;;;6.30;3.60;;;;;;;;;;5135800;27;20655;-75
2022/02/10 00:55:32;;;;;;;5.43;2.80;;;;;;;;;;5135459;27;20214;-74
2022/02/10 00:58:06;;;;;;;5.30;2.67;;;;;;;;;;5145518;27;20200;-75
2022/02/10 01:12:07;;;;;;;6.00;2.83;;;;;;;;;;5135217;27;20227;-75
2022/02/10 01:31:11;;;;;;;8.50;2.70;;;;;;;;;;5155775;27;20658;-75
2022/02/10 01:33:41;;;;;;;4.93;2.67;;;;;;;;;;5154055;27;20196;-75
2022/02/10 01:36:09;;;;;;;9.13;3.40;;;;;;;;;;5155888;27;20228;-75
2022/02/10 01:38:37;;;;;;;6.43;2.63;;;;;;;;;;5126971;27;20201;-75
2022/02/10 01:58:06;;;;;;;8.63;3.07;;;;;;;;;;5119935;28;20251;-76
2022/02/10 02:03:26;;;;;;;5.67;2.97;;;;;;;;;;5140929;27;20208;-74
2022/02/10 02:06:00;;;;;;;8.87;2.40;;;;;;;;;;5122868;27;20694;-75
2022/02/10 02:08:30;;;;;;;6.57;2.87;;;;;;;;;;5120805;28;20209;-75
2022/02/10 02:11:00;;;;;;;3.83;2.83;;;;;;;;;;5138487;27;20210;-76
2022/02/10 02:13:29;;;;;;;7.50;2.53;;;;;;;;;;5141023;27;20204;-75
2022/02/10 02:15:57;;;;;;;6.37;2.40;;;;;;;;;;5122172;27;20213;-75
2022/02/10 02:18:26;;;;;;;4.80;2.50;;;;;;;;;;5117000;28;20216;-74
2022/02/10 02:20:55;;;;;;;4.97;3.03;;;;;;;;;;5136107;27;20206;-75
2022/02/10 02:23:25;;;;;;;10.03;2.93;;;;;;;;;;5132225;27;20568;-75
2022/02/10 02:26:00;;;;;;;3.77;2.63;;;;;;;;;;5128175;27;20315;-76
2022/02/10 02:28:28;;;;;;;8.93;2.40;;;;;;;;;;5120210;28;20205;-75
2022/02/10 02:31:00;;;;;;;7.90;3.13;;;;;;;;;;5132345;27;20201;-75
2022/02/10 02:39:31;;;;;;;11.43;2.70;;;;;;;;;;5097826;27;20648;-75
2022/02/10 03:04:46;;;;;;;7.23;2.60;;;;;;;;;;5127860;27;20283;-75
2022/02/10 03:07:27;;;;;;;8.53;3.07;;;;;;;;;;5119213;28;20683;-75
2022/02/10 03:10:07;;;;;;;6.83;2.93;;;;;;;;;;5119429;28;20217;-75
2022/02/10 03:12:37;;;;;;;7.43;2.93;;;;;;;;;;5119490;28;20214;-75
2022/02/10 03:15:09;;;;;;;6.07;3.00;;;;;;;;;;5137767;27;20204;-75
2022/02/10 03:17:56;;;;;;;7.87;3.20;;;;;;;;;;5138982;27;20220;-74
2022/02/10 03:20:39;;;;;;;8.80;3.13;;;;;;;;;;5119864;27;20208;-75
2022/02/10 04:02:50;;;;;;;8.83;3.33;;;;;;;;;;5055502;28;20210;-75
2022/02/10 04:08:14;;;;;;;10.63;4.37;;;;;;;;;;5092388;28;20229;-75
2022/02/10 04:11:04;;;;;;;6.60;3.70;;;;;;;;;;5118222;28;20200;-74
2022/02/10 04:13:41;;;;;;;7.10;4.40;;;;;;;;;;5118352;28;20213;-75
2022/02/10 04:16:15;;;;;;;9.07;3.93;;;;;;;;;;5130697;27;20457;-75
2022/02/10 04:19:36;;;;;;;11.23;4.57;;;;;;;;;;5119384;27;20686;-75
2022/02/10 04:22:03;;;;;;;12.53;5.43;;;;;;;;;;5118696;28;20472;-75
2022/02/10 04:25:00;;;;;;;6.37;4.07;;;;;;;;;;5118729;28;20438;-75
2022/02/10 04:27:51;;;;;;;10.80;4.70;;;;;;;;;;5125299;28;20484;-75
2022/02/10 04:30:33;;;;;;;9.17;4.17;;;;;;;;;;5138320;27;20448;-75
2022/02/10 04:55:39;;;;;;;10.13;4.63;;;;;;;;;;5117986;28;20469;-75
2022/02/10 05:01:05;;;;;;;6.93;4.20;;;;;;;;;;5137976;27;20450;-74
2022/02/10 05:17:47;;;;;;;7.93;5.17;;;;;;;;;;5098040;28;20485;-73
2022/02/10 05:23:18;;;;;;;7.03;4.67;;;;;;;;;;5112242;27;20431;-75
2022/02/10 05:31:54;;;;;;;9.90;4.80;;;;;;;;;;5119587;27;20441;-73
2022/02/10 05:34:23;;;;;;;11.97;4.83;;;;;;;;;;5117903;27;20949;-74
2022/02/10 05:36:53;;;;;;;12.87;4.97;;;;;;;;;;5135385;27;20554;-74
2022/02/10 05:39:24;;;;;;;13.67;4.77;;;;;;;;;;5129715;27;20453;-74
2022/02/10 05:42:19;;;;;;;11.50;5.23;;;;;;;;;;5114642;28;20481;-75
2022/02/10 05:44:55;;;;;;;10.40;5.13;;;;;;;;;;5131000;27;20525;-75
2022/02/10 05:47:47;;;;;;;11.47;4.90;;;;;;;;;;5140841;27;21006;-75
2022/02/10 05:55:57;;;;;;;10.77;4.97;;;;;;;;;;5090551;28;20447;-75
2022/02/10 05:58:34;;;;;;;7.00;4.33;;;;;;;;;;5118327;28;20457;-76
2022/02/10 06:51:17;;;;;;;6.87;4.93;;;;;;;;;;5105488;28;20975;-75
2022/02/10 06:53:55;;;;;;;11.87;4.83;;;;;;;;;;5132343;27;20452;-74
2022/02/10 07:13:39;;;;;;;14.40;5.73;;;;;;;;;;5115808;27;20442;-77
2022/02/10 07:16:52;;;;;;;11.43;5.03;;;;;;;;;;5119115;27;20496;-76
2022/02/10 07:47:51;;;;;;;13.07;6.90;;;;;;;;;;5105683;28;20455;-75
2022/02/10 07:50:46;;;;;;;17.27;7.33;;;;;;;;;;5119924;27;20507;-74
2022/02/10 07:53:45;;;;;;;19.03;7.27;;;;;;;;;;5126468;27;20542;-73
2022/02/10 08:17:52;;;;;;;15.87;8.30;;;;;;;;;;5104465;28;20443;-73
2022/02/10 09:03:55;;;;;;;18.37;7.03;;;;;;;;;;5083628;28;20210;-72
2022/02/10 09:06:37;;;;;;;20.27;6.70;;;;;;;;;;5110726;28;20250;-71
2022/02/10 10:00:17;;;;;;;17.20;4.47;;;;;;;;;;5074541;28;20199;-71
2022/02/10 10:02:50;;;;;;;11.87;4.77;;;;;;;;;;5080958;28;20218;-72
2022/02/10 10:05:28;;;;;;;14.73;4.70;;;;;;;;;;5099833;28;20231;-71
2022/02/10 10:08:17;;;;;;;11.70;4.87;;;;;;;;;;5099656;28;20305;-71
2022/02/10 10:10:57;;;;;;;15.20;4.17;;;;;;;;;;5098361;28;20281;-71
2022/02/10 10:13:46;;;;;;;12.37;4.13;;;;;;;;;;5100396;28;20193;-72
2022/02/10 10:16:43;;;;;;;12.80;4.50;;;;;;;;;;5102279;28;20258;-71
2022/02/10 10:19:27;;;;;;;11.57;4.50;;;;;;;;;;5099762;28;20289;-71
2022/02/10 10:22:19;;;;;;;8.93;4.30;;;;;;;;;;5096339;28;20224;-72
2022/02/10 10:25:10;;;;;;;14.10;4.50;;;;;;;;;;5101355;28;20202;-72
2022/02/10 10:44:14;;;;;;;11.03;5.33;;;;;;;;;;5099594;28;20214;-72
2022/02/10 10:50:56;;;;;;;11.53;4.50;;;;;;;;;;5079351;28;20206;-71
2022/02/10 10:53:32;;;;;;;8.83;3.70;;;;;;;;;;5081026;28;20198;-73
2022/02/10 10:56:06;;;;;;;8.43;4.50;;;;;;;;;;5079409;28;20222;-73
2022/02/10 10:58:39;;;;;;;15.13;4.53;;;;;;;;;;5067381;28;20206;-73
2022/02/10 11:38:03;;;;;;;10.03;5.23;;;;;;;;;;5067538;28;20251;-70
2022/02/10 11:40:40;;;;;;;12.70;4.83;;;;;;;;;;5066288;28;20232;-71
2022/02/10 11:43:14;;;;;;;7.53;3.83;;;;;;;;;;5065623;28;20586;-72
2022/02/10 11:46:19;;;;;;;15.07;4.63;;;;;;;;;;5077572;28;20563;-71
2022/02/10 12:00:50;;;;;;;9.30;3.80;;;;;;;;;;5088487;28;20220;-72
2022/02/10 12:29:35;;;;;;;9.33;4.73;;;;;;;;;;5064296;28;20288;-71
2022/02/10 13:23:21;;;;;;;7.97;4.43;;;;;;;;;;5050510;28;20222;-72
2022/02/10 13:23:28;;;;;;;12.27;4.40;;;;;;;;;;5073671;28;20235;-72
2022/02/10 13:49:19;;;;;;;9.03;3.57;;;;;;;;;;5076448;28;20331;-71
2022/02/10 14:11:54;;;;;;;5.80;3.60;;;;;;;;;;5078641;28;20202;-71
2022/02/10 14:14:19;;;;;;;7.10;3.67;;;;;;;;;;5077758;28;20736;-71
2022/02/10 14:16:52;;;;;;;6.83;3.50;;;;;;;;;;5071547;28;20244;-72
2022/02/10 14:19:30;;;;;;;6.17;3.43;;;;;;;;;;5076832;28;20254;-72
2022/02/10 14:22:08;;;;;;;11.97;3.33;;;;;;;;;;5086250;28;20241;-72
2022/02/10 14:27:26;;;;;;;9.80;3.30;;;;;;;;;;5081236;28;20226;-71
2022/02/10 14:29:55;;;;;;;6.80;3.27;;;;;;;;;;5067695;28;20629;-71
2022/02/10 14:32:30;;;;;;;9.90;2.97;;;;;;;;;;5066316;28;20210;-71
2022/02/10 14:35:10;;;;;;;12.37;3.00;;;;;;;;;;5067062;28;20253;-71
2022/02/10 14:38:05;;;;;;;9.43;3.20;;;;;;;;;;5069281;28;20276;-71
2022/02/10 14:41:05;;;;;;;9.27;2.93;;;;;;;;;;5066237;28;20566;-71
2022/02/10 15:17:31;;;;;;;6.73;3.20;;;;;;;;;;5045430;28;20233;-71
2022/02/10 16:18:44;;;;;;;8.87;3.03;;;;;;;;;;5075726;28;20225;-70
2022/02/10 16:21:12;;;;;;;8.87;3.30;;;;;;;;;;5077904;28;20638;-69
2022/02/10 16:23:40;;;;;;;9.73;2.93;;;;;;;;;;5078560;28;20606;-69
2022/02/10 16:26:12;;;;;;;9.03;2.57;;;;;;;;;;5077794;28;20222;-69
2022/02/10 16:28:41;;;;;;;5.93;2.73;;;;;;;;;;5065004;28;20219;-69
2022/02/10 16:31:11;;;;;;;10.07;3.13;;;;;;;;;;5077814;28;20290;-69
2022/02/10 16:33:44;;;;;;;5.80;2.53;;;;;;;;;;5068188;28;20638;-69
2022/02/10 16:36:17;;;;;;;7.93;3.13;;;;;;;;;;5077937;28;20230;-69
2022/02/10 16:38:50;;;;;;;4.63;3.03;;;;;;;;;;5077698;28;20202;-69
2022/02/10 16:41:25;;;;;;;9.20;3.07;;;;;;;;;;5077772;28;20225;-70
2022/02/10 16:43:58;;;;;;;7.53;3.93;;;;;;;;;;5064288;28;20587;-68
2022/02/10 16:46:32;;;;;;;14.03;3.83;;;;;;;;;;5077584;28;20240;-69
2022/02/10 16:49:05;;;;;;;8.67;3.43;;;;;;;;;;5077235;28;20209;-69
2022/02/10 16:51:42;;;;;;;8.73;3.53;;;;;;;;;;5077473;28;20667;-69
2022/02/10 16:54:22;;;;;;;7.20;3.27;;;;;;;;;;5065182;28;20205;-69
2022/02/10 16:57:06;;;;;;;12.80;3.80;;;;;;;;;;5082993;28;20214;-69
2022/02/10 16:59:47;;;;;;;7.63;3.80;;;;;;;;;;5083547;28;20202;-69
2022/02/10 17:02:44;;;;;;;7.77;3.80;;;;;;;;;;5085190;28;20231;-69
2022/02/10 17:19:34;;;;;;;9.83;4.20;;;;;;;;;;5069397;28;20215;-69
2022/02/10 17:27:39;;;;;;;9.17;3.57;;;;;;;;;;5086899;28;20220;-71
2022/02/10 17:30:59;;;;;;;6.40;3.40;;;;;;;;;;5087457;28;20202;-72
2022/02/10 17:33:32;;;;;;;8.17;4.00;;;;;;;;;;5087067;28;20205;-73
2022/02/10 17:36:11;;;;;;;9.57;3.77;;;;;;;;;;5083735;28;20224;-72
2022/02/10 17:44:33;;;;;;;11.23;4.13;;;;;;;;;;5088610;28;20232;-72
2022/02/10 17:52:36;;;;;;;24.00;5.10;;;;;;;;;;5064652;28;20194;-72
2022/02/10 17:55:10;;;;;;;10.93;4.17;;;;;;;;;;5077021;28;20217;-72
2022/02/10 17:57:38;;;;;;;14.00;4.97;;;;;;;;;;5080774;28;20222;-72
2022/02/10 18:00:08;;;;;;;7.63;4.40;;;;;;;;;;5078885;28;20214;-72
2022/02/10 18:02:37;;;;;;;16.60;4.90;;;;;;;;;;5090169;28;20277;-72
2022/02/10 18:05:08;;;;;;;15.43;4.17;;;;;;;;;;5089149;28;20231;-72
2022/02/10 18:07:38;;;;;;;13.37;4.53;;;;;;;;;;5088218;28;20218;-72
2022/02/10 18:10:30;;;;;;;14.87;4.57;;;;;;;;;;5088819;28;20205;-72
2022/02/10 18:15:49;;;;;;;20.73;7.30;;;;;;;;;;5056554;28;20195;-72
2022/02/10 18:18:24;;;;;;;16.83;7.00;;;;;;;;;;5078468;28;20205;-73
2022/02/10 18:20:58;;;;;;;9.63;5.20;;;;;;;;;;5063918;28;20202;-72
2022/02/10 18:23:32;;;;;;;11.50;6.00;;;;;;;;;;5079817;28;20210;-72
2022/02/10 18:26:06;;;;;;;13.77;5.73;;;;;;;;;;5079812;28;20595;-71
2022/02/10 18:29:01;;;;;;;16.70;6.27;;;;;;;;;;5069882;28;20213;-71
2022/02/10 19:07:49;;;;;;;11.33;6.80;;;;;;;;;;5079109;28;20715;-71
2022/02/10 19:10:20;;;;;;;13.57;7.40;;;;;;;;;;5079122;28;20293;-71
2022/02/10 19:12:52;;;;;;;15.77;7.23;;;;;;;;;;5078866;28;20210;-71
2022/02/10 19:15:22;;;;;;;12.90;7.40;;;;;;;;;;5079006;28;20572;-71
2022/02/10 19:17:50;;;;;;;16.67;8.13;;;;;;;;;;5064481;28;20223;-71
2022/02/10 19:20:20;;;;;;;14.33;7.37;;;;;;;;;;5067821;28;20293;-71
2022/02/10 19:22:49;;;;;;;15.37;7.73;;;;;;;;;;5078468;28;20238;-71
2022/02/10 19:25:18;;;;;;;18.50;8.07;;;;;;;;;;5078489;28;20701;-71
2022/02/10 19:27:46;;;;;;;14.03;8.33;;;;;;;;;;5078784;28;20231;-72
2022/02/10 19:30:15;;;;;;;12.60;7.77;;;;;;;;;;5078731;28;20213;-71
2022/02/10 19:32:48;;;;;;;13.97;7.60;;;;;;;;;;5075136;28;20585;-71
2022/02/10 19:35:20;;;;;;;14.77;7.07;;;;;;;;;;5069227;28;20202;-71
2022/02/10 19:37:55;;;;;;;18.50;8.57;;;;;;;;;;5078246;28;20238;-72
2022/02/10 19:40:23;;;;;;;21.90;9.53;;;;;;;;;;5071423;28;20212;-71
2022/02/10 19:42:52;;;;;;;23.80;11.70;;;;;;;;;;5078597;28;20206;-71
2022/02/10 19:45:20;;;;;;;23.93;13.20;;;;;;;;;;5078455;28;20222;-71
2022/02/10 19:47:49;;;;;;;16.60;9.53;;;;;;;;;;5078073;28;20230;-71
2022/02/10 19:50:24;;;;;;;17.77;8.70;;;;;;;;;;5072258;28;20212;-71
2022/02/10 19:52:57;;;;;;;15.97;8.80;;;;;;;;;;5078821;28;20216;-71
2022/02/10 19:55:25;;;;;;;16.83;9.27;;;;;;;;;;5078698;28;20224;-71
2022/02/10 19:57:56;;;;;;;17.93;9.10;;;;;;;;;;5069672;28;20226;-71
2022/02/10 20:00:31;;;;;;;20.77;9.17;;;;;;;;;;5079017;28;20224;-71
2022/02/10 20:03:01;;;;;;;22.30;9.50;;;;;;;;;;5078182;28;20205;-71
2022/02/10 20:05:29;;;;;;;16.50;8.80;;;;;;;;;;5078215;28;20226;-71
2022/02/10 20:07:59;;;;;;;16.83;9.63;;;;;;;;;;5078504;28;20233;-71
2022/02/10 20:10:27;;;;;;;12.90;8.63;;;;;;;;;;5065541;28;20212;-71
2022/02/10 20:12:55;;;;;;;15.23;9.33;;;;;;;;;;5078506;28;20696;-71
2022/02/10 20:15:23;;;;;;;16.77;9.33;;;;;;;;;;5078448;28;20206;-71
2022/02/10 20:17:55;;;;;;;19.13;9.80;;;;;;;;;;5078098;28;20305;-71
2022/02/10 20:20:23;;;;;;;17.63;9.63;;;;;;;;;;5078596;28;20214;-71
2022/02/10 20:22:51;;;;;;;15.63;10.87;;;;;;;;;;5078163;28;20238;-71
2022/02/10 20:25:37;;;;;;;20.63;11.60;;;;;;;;;;5078384;28;20236;-71
2022/02/10 20:28:09;;;;;;;20.50;10.73;;;;;;;;;;5078424;28;20212;-71
2022/02/10 20:30:38;;;;;;;16.73;10.43;;;;;;;;;;5078536;28;20224;-71
2022/02/10 20:33:06;;;;;;;18.37;11.03;;;;;;;;;;5078077;28;20210;-71
2022/02/10 20:35:43;;;;;;;17.83;10.00;;;;;;;;;;5077915;28;20202;-71
2022/02/10 20:38:12;;;;;;;17.47;10.33;;;;;;;;;;5078227;28;20217;-71
2022/02/10 20:40:44;;;;;;;22.13;11.27;;;;;;;;;;5078051;28;20214;-71
2022/02/10 20:43:12;;;;;;;21.67;9.83;;;;;;;;;;5078195;28;20210;-71
2022/02/10 20:45:40;;;;;;;21.37;10.73;;;;;;;;;;5077636;28;20222;-71
2022/02/10 20:48:09;;;;;;;19.87;9.67;;;;;;;;;;5077753;28;20234;-71
2022/02/10 20:50:37;;;;;;;19.13;9.80;;;;;;;;;;5077783;28;20693;-71
2022/02/10 20:53:05;;;;;;;24.20;11.53;;;;;;;;;;5078146;28;20213;-71
2022/02/10 20:55:33;;;;;;;27.20;12.13;;;;;;;;;;5077956;28;20205;-71
2022/02/10 20:58:02;;;;;;;19.77;11.60;;;;;;;;;;5077953;28;20217;-71
2022/02/10 21:00:32;;;;;;;19.30;10.80;;;;;;;;;;5077577;28;20216;-72
2022/02/10 21:03:00;;;;;;;15.93;9.77;;;;;;;;;;5077335;28;20264;-72
2022/02/10 21:05:34;;;;;;;23.27;10.77;;;;;;;;;;5077632;28;20256;-71
2022/02/10 21:08:09;;;;;;;19.27;11.40;;;;;;;;;;5077478;28;20209;-71
2022/02/10 21:10:38;;;;;;;20.80;11.00;;;;;;;;;;5077910;28;20205;-71
2022/02/10 21:13:09;;;;;;;23.13;10.27;;;;;;;;;;5077661;28;20284;-71
2022/02/10 21:15:42;;;;;;;23.70;10.20;;;;;;;;;;5077682;28;20217;-71
2022/02/10 21:18:11;;;;;;;22.67;9.53;;;;;;;;;;5076899;28;20206;-71
2022/02/10 21:20:39;;;;;;;23.00;10.30;;;;;;;;;;5077770;28;20206;-71
2022/02/10 21:23:18;;;;;;;22.17;10.40;;;;;;;;;;5077370;28;20244;-71
2022/02/10 21:25:47;;;;;;;17.97;9.90;;;;;;;;;;5077434;28;20240;-71
2022/02/10 21:28:20;;;;;;;24.33;10.37;;;;;;;;;;5077795;28;20210;-71
2022/02/10 21:30:53;;;;;;;15.00;10.43;;;;;;;;;;5077432;28;20572;-71
2022/02/10 21:33:29;;;;;;;20.50;9.50;;;;;;;;;;5076916;28;20202;-71
2022/02/10 21:38:44;;;;;;;17.37;10.23;;;;;;;;;;5060593;28;20210;-71
2022/02/10 21:41:57;;;;;;;18.23;10.00;;;;;;;;;;5077257;28;20228;-73
2022/02/10 21:47:39;;;;;;;15.70;9.60;;;;;;;;;;5076953;28;20234;-71
2022/02/10 22:09:58;;;;;;;16.70;8.10;;;;;;;;;;5076914;28;20674;-71
2022/02/10 22:20:58;;;;;;;16.13;8.47;;;;;;;;;;5077312;28;20233;-71
2022/02/10 22:23:28;;;;;;;15.57;9.40;;;;;;;;;;5077611;28;20220;-73
2022/02/10 22:25:58;;;;;;;17.83;9.73;;;;;;;;;;5076777;28;20589;-70
2022/02/10 22:28:33;;;;;;;15.60;8.63;;;;;;;;;;5077044;28;20696;-70
2022/02/10 22:31:24;;;;;;;17.70;8.43;;;;;;;;;;5080894;28;20312;-70
2022/02/10 22:34:08;;;;;;;19.00;9.87;;;;;;;;;;5081227;28;20206;-70
2022/02/10 22:36:39;;;;;;;17.07;9.10;;;;;;;;;;5080985;28;20588;-70
2022/02/10 22:39:07;;;;;;;18.53;8.97;;;;;;;;;;5081117;28;20212;-70
2022/02/10 22:41:36;;;;;;;18.40;8.77;;;;;;;;;;5081585;28;20206;-70
2022/02/10 22:44:04;;;;;;;21.97;9.90;;;;;;;;;;5082748;28;20289;-70
2022/02/10 22:46:32;;;;;;;16.30;10.07;;;;;;;;;;5080899;28;20238;-70
2022/02/10 22:49:02;;;;;;;17.77;9.73;;;;;;;;;;5080911;28;20212;-70
2022/02/10 22:51:31;;;;;;;17.93;8.67;;;;;;;;;;5080232;28;20213;-70
2022/02/10 22:53:59;;;;;;;13.73;8.67;;;;;;;;;;5080234;28;20206;-70
2022/02/10 22:56:29;;;;;;;14.80;9.07;;;;;;;;;;5080092;28;20229;-70
2022/02/10 22:58:57;;;;;;;22.63;10.50;;;;;;;;;;5080330;28;20216;-70
2022/02/10 23:01:25;;;;;;;17.23;10.43;;;;;;;;;;5079573;28;20684;-70
2022/02/10 23:03:53;;;;;;;15.13;9.57;;;;;;;;;;5079797;28;20209;-70
2022/02/10 23:06:25;;;;;;;17.27;8.80;;;;;;;;;;5079924;28;20313;-70
2022/02/10 23:08:53;;;;;;;13.00;9.13;;;;;;;;;;5079898;28;20274;-70
2022/02/10 23:11:27;;;;;;;20.47;9.60;;;;;;;;;;5080069;28;20207;-70
2022/02/10 23:13:56;;;;;;;21.17;10.70;;;;;;;;;;5079766;28;20205;-71
2022/02/10 23:16:25;;;;;;;19.17;10.40;;;;;;;;;;5079512;28;20241;-70
2022/02/10 23:18:53;;;;;;;18.13;9.57;;;;;;;;;;5079695;28;20202;-70
2022/02/10 23:21:21;;;;;;;17.07;9.17;;;;;;;;;;5079721;28;20236;-70
2022/02/10 23:23:51;;;;;;;13.83;9.00;;;;;;;;;;5079768;28;20206;-70
2022/02/10 23:26:20;;;;;;;15.13;9.00;;;;;;;;;;5079723;28;20318;-70
2022/02/10 23:28:49;;;;;;;17.93;9.27;;;;;;;;;;5079206;28;20226;-70
2022/02/10 23:31:18;;;;;;;13.33;8.97;;;;;;;;;;5079287;28;20289;-70
2022/02/10 23:33:50;;;;;;;19.43;9.27;;;;;;;;;;5079027;28;20224;-70
2022/02/10 23:39:10;;;;;;;17.00;9.50;;;;;;;;;;5079433;28;20206;-70
2022/02/10 23:44:24;;;;;;;15.07;10.20;;;;;;;;;;5076472;28;20206;-70
2022/02/10 23:46:52;;;;;;;19.53;9.80;;;;;;;;;;5078494;28;20657;-70
2022/02/10 23:49:22;;;;;;;16.97;9.40;;;;;;;;;;5079085;28;20686;-70
2022/02/10 23:51:55;;;;;;;19.17;8.83;;;;;;;;;;5078898;28;20682;-70
2022/02/10 23:54:26;;;;;;;15.47;9.63;;;;;;;;;;5079212;28;20206;-70
2022/02/10 23:56:59;;;;;;;15.57;9.33;;;;;;;;;;5078594;28;20244;-70
